CheckWX is a tool to help pilots better visualize weather data.  It is not intended as a substitute for an official pre-flight weather briefing.

06:41:18 UTC

OISF METAR
Fasa Airport
Fasa, Iran
Current

41 mins ago

OISF 200600Z 00000KT CAVOK 23/04 Q1019 A3011
Observed
Oct-20 @ 06:00 UTC
Visibility
10,000+ meters
Flight Rules
VFR
Cloud Levels
  • Clear skies
Temperature
23°C / 73°F
Dewpoint
C / 39°F
Humidity
29%
Altimeter
30.09" Hg
Pressure
1018.92 hPa
Previous

2 hours ago

OISF 200500Z 00000KT CAVOK 20/03 Q1019
Observed
Oct-20 @ 05:00 UTC
Visibility
10,000+ meters
Flight Rules
VFR
Cloud Levels
  • Clear skies
Temperature
20°C / 68°F
Dewpoint
C / 37°F
Humidity
33%
Altimeter
30.09" Hg
Pressure
1018.92 hPa
Previous

3 hours ago

OISF 200400Z 00000KT CAVOK 15/02 Q1018 A3008
Observed
Oct-20 @ 04:00 UTC
Visibility
10,000+ meters
Flight Rules
VFR
Cloud Levels
  • Clear skies
Temperature
15°C / 59°F
Dewpoint
C / 36°F
Humidity
42%
Altimeter
30.06" Hg
Pressure
1017.92 hPa